createdAt,value
2017-11-17T00:00:58.472Z,9.20
2017-11-17T00:03:01.151Z,9.10
2017-11-17T00:05:03.842Z,9.20
2017-11-17T00:07:06.540Z,9.20
2017-11-17T00:09:09.220Z,9.20
2017-11-17T00:11:11.917Z,9.20
2017-11-17T00:13:14.575Z,9.20
2017-11-17T00:15:17.325Z,9.20
2017-11-17T00:17:20.101Z,9.20
2017-11-17T00:19:22.757Z,9.20
2017-11-17T00:21:25.455Z,9.20
2017-11-17T00:23:28.121Z,9.20
2017-11-17T00:25:30.794Z,9.20
2017-11-17T00:27:33.484Z,9.20
2017-11-17T00:29:36.161Z,9.10
2017-11-17T00:31:38.845Z,9.10
2017-11-17T00:33:41.513Z,9.10
2017-11-17T00:35:44.177Z,9.10
2017-11-17T00:37:46.866Z,9.10
2017-11-17T00:39:49.523Z,9.00
2017-11-17T00:41:52.215Z,9.00
2017-11-17T00:43:54.876Z,9.00
2017-11-17T00:45:57.545Z,9.00
2017-11-17T00:48:00.989Z,9.00
2017-11-17T00:50:03.739Z,9.00
2017-11-17T00:52:06.415Z,9.00
2017-11-17T00:54:09.075Z,8.90
2017-11-17T00:56:11.735Z,8.90
2017-11-17T00:58:15.186Z,8.90
2017-11-17T01:00:17.861Z,8.80
2017-11-17T01:02:20.550Z,8.80
2017-11-17T01:04:23.230Z,8.80
2017-11-17T01:06:25.980Z,8.80
2017-11-17T01:08:28.676Z,8.80
2017-11-17T01:10:31.348Z,8.80
2017-11-17T01:12:34.019Z,8.70
2017-11-17T01:14:36.945Z,8.70
2017-11-17T01:16:40.369Z,8.70
2017-11-17T01:18:43.053Z,8.70
2017-11-17T01:20:45.727Z,8.70
2017-11-17T01:22:48.394Z,8.70
2017-11-17T01:24:51.167Z,8.70
2017-11-17T01:26:53.838Z,8.60
2017-11-17T01:28:56.530Z,8.60
2017-11-17T01:30:59.195Z,8.60
2017-11-17T01:33:01.864Z,8.60
2017-11-17T01:35:04.519Z,8.60
2017-11-17T01:37:07.956Z,8.60
2017-11-17T01:39:10.732Z,8.60
2017-11-17T01:41:13.512Z,8.60
2017-11-17T01:43:16.290Z,8.50
2017-11-17T01:45:18.965Z,8.50
2017-11-17T01:47:21.649Z,8.50
2017-11-17T01:49:24.321Z,8.50
2017-11-17T01:51:27.009Z,8.50
2017-11-17T01:53:29.666Z,8.40
2017-11-17T01:55:32.341Z,8.40
2017-11-17T01:57:35.049Z,8.40
2017-11-17T01:59:37.800Z,8.40
2017-11-17T02:01:40.461Z,8.40
2017-11-17T02:03:43.175Z,8.40
2017-11-17T02:05:45.891Z,8.40
2017-11-17T02:07:49.314Z,8.40
2017-11-17T02:09:51.997Z,8.40
2017-11-17T02:11:54.647Z,8.30
2017-11-17T02:13:58.171Z,8.30
2017-11-17T02:16:00.866Z,8.30
2017-11-17T02:18:03.537Z,8.30
2017-11-17T02:20:06.232Z,8.30
2017-11-17T02:22:08.923Z,8.20
2017-11-17T02:24:11.606Z,8.30
2017-11-17T02:26:14.331Z,8.20
2017-11-17T02:28:17.107Z,8.20
2017-11-17T02:30:19.887Z,8.20
2017-11-17T02:32:22.665Z,8.20
2017-11-17T02:34:25.353Z,8.30
2017-11-17T02:36:28.040Z,8.20
2017-11-17T02:38:30.824Z,8.20
2017-11-17T02:40:33.522Z,8.20
2017-11-17T02:42:37.006Z,8.20
2017-11-17T02:44:41.234Z,8.10
2017-11-17T02:46:44.694Z,8.10
2017-11-17T02:48:47.422Z,8.10
2017-11-17T02:50:50.904Z,8.10
2017-11-17T02:52:53.613Z,8.00
2017-11-17T02:54:56.408Z,8.00
2017-11-17T02:56:59.108Z,8.00
2017-11-17T02:59:01.819Z,8.00
2017-11-17T03:01:05.310Z,8.00
2017-11-17T03:03:08.766Z,7.90
2017-11-17T03:05:11.448Z,7.90
2017-11-17T03:07:14.148Z,7.90
2017-11-17T03:09:18.339Z,7.90
2017-11-17T03:11:21.051Z,7.90
2017-11-17T03:13:24.584Z,7.90
2017-11-17T03:15:27.277Z,7.80
2017-11-17T03:17:29.998Z,7.80
2017-11-17T03:19:33.434Z,7.70
2017-11-17T03:21:36.086Z,7.70
2017-11-17T03:23:39.554Z,7.60
2017-11-17T03:25:42.383Z,7.60
2017-11-17T03:27:45.088Z,7.60
2017-11-17T03:29:47.833Z,7.50
2017-11-17T03:31:50.486Z,7.50
2017-11-17T03:33:53.146Z,7.40
2017-11-17T03:35:55.861Z,7.50
2017-11-17T03:37:58.526Z,7.40
2017-11-17T03:40:01.228Z,7.40
2017-11-17T03:42:03.929Z,7.40
2017-11-17T03:44:06.617Z,7.30
2017-11-17T03:46:09.295Z,7.30
2017-11-17T03:48:11.965Z,7.20
2017-11-17T03:50:14.642Z,7.20
2017-11-17T03:52:17.359Z,7.20
2017-11-17T03:54:20.060Z,7.20
2017-11-17T03:56:22.739Z,7.20
2017-11-17T03:58:25.394Z,7.20
2017-11-17T04:00:28.109Z,7.20
2017-11-17T04:02:30.774Z,7.10
2017-11-17T04:04:33.465Z,7.10
2017-11-17T04:06:36.239Z,7.00
2017-11-17T04:08:39.011Z,7.00
2017-11-17T04:10:41.745Z,7.00
2017-11-17T04:12:45.211Z,6.80
2017-11-17T04:14:47.880Z,6.80
2017-11-17T04:16:50.614Z,6.80
2017-11-17T04:18:53.279Z,6.80
2017-11-17T04:20:56.004Z,6.70
2017-11-17T04:22:58.761Z,6.70
2017-11-17T04:25:01.425Z,6.70
2017-11-17T04:27:04.121Z,6.70
2017-11-17T04:29:06.791Z,6.60
2017-11-17T04:31:09.545Z,6.60
2017-11-17T04:33:12.237Z,6.60
2017-11-17T04:35:14.915Z,6.60
2017-11-17T04:37:17.617Z,6.50
2017-11-17T04:39:20.370Z,6.50
2017-11-17T04:41:39.259Z,6.50
2017-11-17T04:43:42.826Z,6.40
2017-11-17T04:45:45.487Z,6.40
2017-11-17T04:47:48.185Z,6.40
2017-11-17T04:49:50.837Z,6.40
2017-11-17T04:51:53.541Z,6.40
2017-11-17T04:53:56.230Z,6.30
2017-11-17T04:55:58.898Z,6.30
2017-11-17T04:58:01.658Z,6.30
2017-11-17T05:00:04.345Z,6.20
2017-11-17T05:02:07.018Z,6.10
2017-11-17T05:04:09.676Z,6.10
2017-11-17T05:06:12.364Z,6.10
2017-11-17T05:08:15.024Z,6.00
2017-11-17T05:10:17.693Z,5.90
2017-11-17T05:12:21.162Z,5.80
2017-11-17T05:14:23.984Z,5.80
2017-11-17T05:16:26.662Z,5.70
2017-11-17T05:18:29.365Z,5.80
2017-11-17T05:20:32.032Z,5.70
2017-11-17T05:22:34.690Z,5.70
2017-11-17T05:24:37.376Z,5.70
2017-11-17T05:26:40.047Z,5.60
2017-11-17T05:28:42.717Z,5.60
2017-11-17T05:30:45.380Z,5.60
2017-11-17T05:32:48.046Z,5.60
2017-11-17T05:34:51.453Z,5.50
2017-11-17T05:36:54.122Z,5.40
2017-11-17T05:38:56.782Z,5.40
2017-11-17T05:41:00.211Z,5.40
2017-11-17T05:43:02.897Z,5.40
2017-11-17T05:45:05.537Z,5.40
2017-11-17T05:47:08.988Z,5.30
2017-11-17T05:49:11.642Z,5.30
2017-11-17T05:51:14.331Z,5.30
2017-11-17T05:53:16.992Z,5.30
2017-11-17T05:55:19.657Z,5.20
2017-11-17T05:57:22.327Z,5.20
2017-11-17T05:59:25.012Z,5.20
2017-11-17T06:01:27.695Z,5.20
2017-11-17T06:03:30.353Z,5.20
2017-11-17T06:05:33.005Z,5.10
2017-11-17T06:07:36.496Z,5.20
2017-11-17T06:09:39.915Z,5.10
2017-11-17T06:11:42.614Z,5.10
2017-11-17T06:13:45.276Z,5.00
2017-11-17T06:15:47.937Z,5.00
2017-11-17T06:17:50.611Z,5.00
2017-11-17T06:19:54.036Z,4.90
2017-11-17T06:21:56.722Z,4.90
2017-11-17T06:23:59.401Z,4.90
2017-11-17T06:26:02.760Z,4.90
2017-11-17T06:28:06.063Z,4.80
2017-11-17T06:30:08.934Z,4.80
2017-11-17T06:32:11.610Z,4.70
2017-11-17T06:34:14.277Z,4.60
2017-11-17T06:36:16.971Z,4.60
2017-11-17T06:38:22.125Z,4.60
2017-11-17T06:40:24.780Z,4.60
2017-11-17T06:42:27.451Z,4.70
2017-11-17T06:44:30.108Z,4.70
2017-11-17T06:46:33.573Z,4.50
2017-11-17T06:48:36.227Z,4.50
2017-11-17T06:50:38.892Z,4.40
2017-11-17T06:52:41.604Z,4.40
2017-11-17T06:54:44.287Z,4.40
2017-11-17T06:56:46.954Z,4.30
2017-11-17T06:58:49.617Z,4.30
2017-11-17T07:00:52.360Z,4.40
2017-11-17T07:02:55.048Z,4.30
2017-11-17T07:04:57.686Z,4.20
2017-11-17T07:07:01.130Z,4.30
2017-11-17T07:09:03.900Z,4.20
2017-11-17T07:11:06.662Z,4.20
2017-11-17T07:13:09.397Z,4.20
2017-11-17T07:15:12.123Z,4.10
2017-11-17T07:17:14.808Z,4.10
2017-11-17T07:19:17.489Z,4.00
2017-11-17T07:21:20.135Z,4.00
2017-11-17T07:23:22.798Z,4.00
2017-11-17T07:25:25.447Z,4.00
2017-11-17T07:27:29.314Z,4.00
2017-11-17T07:29:32.061Z,4.00
2017-11-17T07:31:34.711Z,4.10
2017-11-17T07:33:38.173Z,4.00
2017-11-17T07:35:43.741Z,3.90
2017-11-17T07:37:47.191Z,4.00
2017-11-17T07:39:49.863Z,4.00
2017-11-17T07:41:52.704Z,4.20
2017-11-17T07:43:56.159Z,4.30
2017-11-17T07:45:58.831Z,4.20
2017-11-17T07:48:01.499Z,4.30
2017-11-17T07:50:04.152Z,4.40
2017-11-17T07:52:06.845Z,4.50
2017-11-17T07:54:09.512Z,4.60
2017-11-17T07:56:12.164Z,4.70
2017-11-17T07:58:15.618Z,4.80
2017-11-17T08:00:18.266Z,4.80
2017-11-17T08:02:20.945Z,4.90
2017-11-17T08:04:23.632Z,4.90
2017-11-17T08:06:26.269Z,4.90
2017-11-17T08:08:28.926Z,5.10
2017-11-17T08:10:32.351Z,5.20
2017-11-17T08:12:35.056Z,5.20
2017-11-17T08:14:37.717Z,5.30
2017-11-17T08:16:40.367Z,5.30
2017-11-17T08:18:48.038Z,5.30
2017-11-17T08:20:51.486Z,5.40
2017-11-17T08:22:54.166Z,5.40
2017-11-17T08:24:56.867Z,5.70
2017-11-17T08:26:59.805Z,5.80
2017-11-17T08:29:02.686Z,5.90
2017-11-17T08:31:05.354Z,6.00
2017-11-17T08:33:12.046Z,6.00
2017-11-17T08:35:14.689Z,6.30
2017-11-17T08:37:17.369Z,6.10
2017-11-17T08:39:20.093Z,6.30
2017-11-17T08:41:22.744Z,6.90
2017-11-17T08:43:25.431Z,7.80
2017-11-17T08:45:28.193Z,8.70
2017-11-17T08:47:30.871Z,8.60
2017-11-17T08:49:33.528Z,9.10
2017-11-17T08:51:36.206Z,9.20
2017-11-17T08:53:38.886Z,9.40
2017-11-17T08:55:41.569Z,9.80
2017-11-17T08:57:44.249Z,10.30
2017-11-17T08:59:46.961Z,11.20
2017-11-17T09:01:49.617Z,10.30
2017-11-17T09:03:52.286Z,9.00
2017-11-17T09:05:54.952Z,8.60
2017-11-17T09:07:57.651Z,9.70
2017-11-17T09:10:00.302Z,9.60
2017-11-17T09:12:02.971Z,9.10
2017-11-17T09:14:05.671Z,9.00
2017-11-17T09:16:08.323Z,10.00
2017-11-17T09:18:10.996Z,11.60
2017-11-17T09:20:13.668Z,12.00
2017-11-17T09:22:16.306Z,11.80
2017-11-17T09:24:19.039Z,9.70
2017-11-17T09:26:21.734Z,9.00
2017-11-17T09:28:24.447Z,8.80
2017-11-17T09:30:27.097Z,8.80
2017-11-17T09:32:29.808Z,8.60
2017-11-17T09:34:33.245Z,8.30
2017-11-17T09:36:35.928Z,8.30
2017-11-17T09:38:38.587Z,8.20
2017-11-17T09:40:41.265Z,8.70
2017-11-17T09:42:43.963Z,9.80
2017-11-17T09:44:46.637Z,11.10
2017-11-17T09:46:49.395Z,12.90
2017-11-17T09:48:52.092Z,12.90
2017-11-17T09:50:54.759Z,12.70
2017-11-17T09:52:57.455Z,13.20
2017-11-17T09:55:00.128Z,12.80
2017-11-17T09:57:02.881Z,11.10
2017-11-17T09:59:05.583Z,10.40
2017-11-17T10:01:08.273Z,10.20
2017-11-17T10:03:10.966Z,10.20
2017-11-17T10:05:13.634Z,9.60
2017-11-17T10:07:16.332Z,10.60
2017-11-17T10:09:19.858Z,12.10
2017-11-17T10:11:22.548Z,12.10
2017-11-17T10:13:25.310Z,12.40
2017-11-17T10:15:27.980Z,12.70
2017-11-17T10:17:30.632Z,12.50
2017-11-17T10:19:34.082Z,11.10
2017-11-17T10:21:36.748Z,11.10
2017-11-17T10:23:39.511Z,10.90
2017-11-17T10:25:42.184Z,10.30
2017-11-17T10:27:44.861Z,10.60
2017-11-17T10:29:47.536Z,11.10
2017-11-17T10:31:50.216Z,12.40
2017-11-17T10:33:52.980Z,12.50
2017-11-17T10:35:56.606Z,11.50
2017-11-17T10:37:59.279Z,11.50
2017-11-17T10:40:02.052Z,13.30
2017-11-17T10:42:04.819Z,14.80
2017-11-17T10:44:07.503Z,14.60
2017-11-17T10:46:10.195Z,13.20
2017-11-17T10:48:12.930Z,11.40
2017-11-17T10:50:16.399Z,9.70
2017-11-17T10:52:20.571Z,9.60
2017-11-17T10:54:23.277Z,9.60
2017-11-17T10:56:32.672Z,9.80
2017-11-17T10:58:35.342Z,9.70
2017-11-17T11:00:38.798Z,9.60
2017-11-17T11:02:41.477Z,9.60
2017-11-17T11:04:44.164Z,9.80
2017-11-17T11:06:48.649Z,10.00
2017-11-17T11:08:51.360Z,10.00
2017-11-17T11:11:00.536Z,10.00
2017-11-17T11:13:03.297Z,10.00
2017-11-17T11:15:05.972Z,10.00
2017-11-17T11:17:08.643Z,10.00
2017-11-17T11:19:11.333Z,9.90
2017-11-17T11:21:14.278Z,9.80
2017-11-17T11:23:17.834Z,10.10
2017-11-17T11:25:21.165Z,10.10
2017-11-17T11:27:24.629Z,10.00
2017-11-17T11:29:27.356Z,10.00
2017-11-17T11:31:30.054Z,9.80
2017-11-17T11:33:32.823Z,10.00
2017-11-17T11:35:35.599Z,10.10
2017-11-17T11:37:38.544Z,10.10
2017-11-17T11:39:42.000Z,10.10
2017-11-17T11:41:44.677Z,10.10
2017-11-17T11:43:47.355Z,10.10
2017-11-17T11:45:50.110Z,10.20
2017-11-17T11:47:52.775Z,10.30
2017-11-17T11:49:55.461Z,10.30
2017-11-17T11:51:58.154Z,10.30
2017-11-17T11:54:00.834Z,10.20
2017-11-17T11:56:03.497Z,10.10
2017-11-17T11:58:06.166Z,9.90
2017-11-17T12:00:08.832Z,9.70
2017-11-17T12:02:11.504Z,9.60
2017-11-17T12:04:14.177Z,9.70
2017-11-17T12:06:16.969Z,9.90
2017-11-17T12:08:19.718Z,9.90
2017-11-17T12:10:23.233Z,9.90
2017-11-17T12:12:25.893Z,9.90
2017-11-17T12:14:29.358Z,9.70
2017-11-17T12:16:32.023Z,9.60
2017-11-17T12:18:34.714Z,9.90
2017-11-17T12:20:37.443Z,10.10
2017-11-17T12:22:40.101Z,10.30
2017-11-17T12:24:42.806Z,10.00
2017-11-17T12:26:45.464Z,9.90
2017-11-17T12:28:48.167Z,9.70
2017-11-17T12:30:50.835Z,9.70
2017-11-17T12:32:53.499Z,9.80
2017-11-17T12:34:56.187Z,9.80
2017-11-17T12:36:58.861Z,10.00
2017-11-17T12:39:01.560Z,10.10
2017-11-17T12:41:04.991Z,10.00
2017-11-17T12:43:08.522Z,10.10
2017-11-17T12:45:11.303Z,10.10
2017-11-17T12:47:13.987Z,10.10
2017-11-17T12:49:16.693Z,10.20
2017-11-17T12:51:19.362Z,10.00
2017-11-17T12:53:22.038Z,10.00
2017-11-17T12:55:24.711Z,9.90
2017-11-17T12:57:27.357Z,9.80
2017-11-17T12:59:30.068Z,9.80
2017-11-17T13:01:32.713Z,10.00
2017-11-17T13:03:35.378Z,9.90
2017-11-17T13:05:38.049Z,9.70
2017-11-17T13:07:40.752Z,9.60
2017-11-17T13:09:43.449Z,9.40
2017-11-17T13:11:46.107Z,9.50
2017-11-17T13:13:48.791Z,9.50
2017-11-17T13:15:51.464Z,9.40
2017-11-17T13:17:54.144Z,9.20
2017-11-17T13:19:56.926Z,9.20
2017-11-17T13:21:59.579Z,9.00
2017-11-17T13:24:02.259Z,9.00
2017-11-17T13:26:04.917Z,9.20
2017-11-17T13:28:07.576Z,9.20
2017-11-17T13:30:10.375Z,9.40
2017-11-17T13:32:13.790Z,9.40
2017-11-17T13:34:16.462Z,9.40
2017-11-17T13:36:19.369Z,9.50
2017-11-17T13:38:22.158Z,9.40
2017-11-17T13:42:34.333Z,9.10
2017-11-17T13:44:37.555Z,8.90
2017-11-17T13:46:40.239Z,8.80
2017-11-17T13:48:43.160Z,8.70
2017-11-17T13:50:45.869Z,8.80
2017-11-17T13:52:48.557Z,8.90
2017-11-17T13:54:51.290Z,9.10
2017-11-17T13:56:53.961Z,9.10
2017-11-17T13:58:56.642Z,9.00
2017-11-17T14:00:59.308Z,9.20
2017-11-17T14:03:01.953Z,9.20
2017-11-17T14:05:05.624Z,9.00
2017-11-17T14:07:08.294Z,9.00
2017-11-17T14:09:11.002Z,8.90
2017-11-17T14:11:13.671Z,8.90
2017-11-17T14:13:21.247Z,8.60
2017-11-17T14:15:24.849Z,8.30
2017-11-17T14:17:28.765Z,8.30
2017-11-17T14:19:32.227Z,8.20
2017-11-17T14:21:34.909Z,8.20
2017-11-17T14:23:37.601Z,8.30
2017-11-17T14:25:40.273Z,8.30
2017-11-17T14:27:43.121Z,8.30
2017-11-17T14:29:45.815Z,8.30
2017-11-17T14:31:49.180Z,8.30
2017-11-17T14:33:52.084Z,8.30
2017-11-17T14:35:54.785Z,8.40
2017-11-17T14:37:57.658Z,8.50
2017-11-17T14:40:01.161Z,8.40
2017-11-17T14:42:03.899Z,8.40
2017-11-17T14:44:06.595Z,8.30
2017-11-17T14:46:09.246Z,8.20
2017-11-17T14:48:11.934Z,8.30
2017-11-17T14:50:14.798Z,8.30
2017-11-17T14:52:18.280Z,8.30
2017-11-17T14:54:21.794Z,8.20
2017-11-17T14:56:24.512Z,8.10
2017-11-17T14:58:27.178Z,8.00
2017-11-17T15:00:29.863Z,7.90
2017-11-17T15:02:32.650Z,7.70
2017-11-17T15:04:35.341Z,7.60
2017-11-17T15:06:38.076Z,7.40
2017-11-17T15:08:40.760Z,7.40
2017-11-17T15:10:43.435Z,7.40
2017-11-17T15:12:46.105Z,7.40
2017-11-17T15:14:48.821Z,7.40
2017-11-17T15:16:51.486Z,7.20
2017-11-17T15:18:54.260Z,7.10
2017-11-17T15:20:57.006Z,6.90
2017-11-17T15:22:59.705Z,6.90
2017-11-17T15:25:02.507Z,6.50
2017-11-17T15:27:05.444Z,6.40
2017-11-17T15:29:08.156Z,6.20
2017-11-17T15:31:11.003Z,6.20
2017-11-17T15:33:13.724Z,6.00
2017-11-17T15:35:16.436Z,5.90
2017-11-17T15:37:19.134Z,5.90
2017-11-17T15:39:21.808Z,5.70
2017-11-17T15:41:25.664Z,5.70
2017-11-17T15:43:28.354Z,5.50
2017-11-17T15:45:31.847Z,5.40
2017-11-17T15:47:35.293Z,5.30
2017-11-17T15:49:38.006Z,5.30
2017-11-17T15:51:41.501Z,5.20
2017-11-17T15:53:44.214Z,5.20
2017-11-17T15:55:46.914Z,5.10
2017-11-17T15:57:49.808Z,5.00
2017-11-17T15:59:52.726Z,4.90
2017-11-17T16:01:56.177Z,4.80
2017-11-17T16:03:58.951Z,4.70
2017-11-17T16:06:01.685Z,4.80
2017-11-17T16:08:05.196Z,4.70
2017-11-17T16:10:07.990Z,4.60
2017-11-17T16:12:10.678Z,4.60
2017-11-17T16:14:13.350Z,4.40
2017-11-17T16:16:16.026Z,4.30
2017-11-17T16:18:18.717Z,4.30
2017-11-17T16:20:21.471Z,4.20
2017-11-17T16:22:24.298Z,4.10
2017-11-17T16:24:27.894Z,4.00
2017-11-17T16:26:30.627Z,4.00
2017-11-17T16:28:33.332Z,4.10
2017-11-17T16:30:36.182Z,4.10
2017-11-17T16:32:38.858Z,4.00
2017-11-17T16:34:41.549Z,4.00
2017-11-17T16:36:44.238Z,4.10
2017-11-17T16:38:46.901Z,3.90
2017-11-17T16:40:49.595Z,3.80
2017-11-17T16:42:52.339Z,3.70
2017-11-17T16:44:55.018Z,3.70
2017-11-17T16:46:57.708Z,3.60
2017-11-17T16:49:00.476Z,3.50
2017-11-17T16:51:03.214Z,3.40
2017-11-17T16:53:06.663Z,3.40
2017-11-17T16:55:09.352Z,3.40
2017-11-17T16:57:12.017Z,3.30
2017-11-17T16:59:14.722Z,3.20
2017-11-17T17:01:17.497Z,3.20
2017-11-17T17:03:20.175Z,3.20
2017-11-17T17:05:23.660Z,3.20
2017-11-17T17:07:26.346Z,3.20
2017-11-17T17:09:29.046Z,3.10
2017-11-17T17:11:32.512Z,3.10
2017-11-17T17:13:35.173Z,3.10
2017-11-17T17:15:37.881Z,3.10
2017-11-17T17:17:40.545Z,3.00
2017-11-17T17:19:43.273Z,3.00
2017-11-17T17:21:45.983Z,2.90
2017-11-17T17:23:48.662Z,2.90
2017-11-17T17:25:51.343Z,2.80
2017-11-17T17:27:54.008Z,2.80
2017-11-17T17:29:56.737Z,2.80
2017-11-17T17:32:00.173Z,3.00
2017-11-17T17:34:02.943Z,3.00
2017-11-17T17:36:05.647Z,3.00
2017-11-17T17:38:08.292Z,2.90
2017-11-17T17:40:10.987Z,2.90
2017-11-17T17:42:13.638Z,2.90
2017-11-17T17:44:16.311Z,3.00
2017-11-17T17:46:19.089Z,2.90
2017-11-17T17:48:21.768Z,2.90
2017-11-17T17:50:24.533Z,2.90
2017-11-17T17:52:27.429Z,3.00
2017-11-17T17:54:30.189Z,3.00
2017-11-17T17:56:32.923Z,3.00
2017-11-17T17:58:35.608Z,3.00
2017-11-17T18:00:38.440Z,3.00
2017-11-17T18:02:41.257Z,3.00
2017-11-17T18:04:44.040Z,3.00
2017-11-17T18:06:46.736Z,3.00
2017-11-17T18:08:51.365Z,3.00
2017-11-17T18:10:54.121Z,3.00
2017-11-17T18:12:56.820Z,3.10
2017-11-17T18:15:00.310Z,3.20
2017-11-17T18:17:03.739Z,3.30
2017-11-17T18:19:06.413Z,3.30
2017-11-17T18:21:09.826Z,3.40
2017-11-17T18:23:12.643Z,3.40
2017-11-17T18:25:15.282Z,3.40
2017-11-17T18:27:18.071Z,3.60
2017-11-17T18:29:20.830Z,3.60
2017-11-17T18:31:23.614Z,3.50
2017-11-17T18:33:26.334Z,3.50
2017-11-17T18:35:29.129Z,3.50
2017-11-17T18:37:32.564Z,3.40
2017-11-17T18:39:35.373Z,3.40
2017-11-17T18:41:38.024Z,3.30
2017-11-17T18:43:40.730Z,3.20
2017-11-17T18:45:43.411Z,3.20
2017-11-17T18:47:46.185Z,3.10
2017-11-17T18:49:48.860Z,3.00
2017-11-17T18:51:51.526Z,2.90
2017-11-17T18:53:54.200Z,2.90
2017-11-17T18:55:57.157Z,2.90
2017-11-17T18:57:59.961Z,2.80
2017-11-17T19:00:02.728Z,2.80
2017-11-17T19:02:05.407Z,2.80
2017-11-17T19:04:08.123Z,2.80
2017-11-17T19:06:12.177Z,2.80
2017-11-17T19:08:15.095Z,2.90
2017-11-17T19:10:17.771Z,2.90
2017-11-17T19:12:20.502Z,2.80
2017-11-17T19:14:23.302Z,2.80
2017-11-17T19:16:25.935Z,2.70
2017-11-17T19:18:28.583Z,2.70
2017-11-17T19:20:31.273Z,2.70
2017-11-17T19:22:33.953Z,2.60
2017-11-17T19:24:37.029Z,2.70
2017-11-17T19:26:41.606Z,2.80
2017-11-17T19:28:46.469Z,2.80
2017-11-17T19:30:49.350Z,2.80
2017-11-17T19:32:52.275Z,3.00
2017-11-17T19:34:58.080Z,3.10
2017-11-17T19:37:00.788Z,3.10
2017-11-17T19:39:03.841Z,3.20
2017-11-17T19:41:06.644Z,3.30
2017-11-17T19:43:09.502Z,3.40
2017-11-17T19:45:12.714Z,3.40
2017-11-17T19:47:15.495Z,3.30
2017-11-17T19:49:18.243Z,3.30
2017-11-17T19:51:20.959Z,3.30
2017-11-17T19:53:23.635Z,3.40
2017-11-17T19:55:26.434Z,3.30
2017-11-17T19:57:29.695Z,3.30
2017-11-17T19:59:32.469Z,3.20
2017-11-17T20:01:35.456Z,3.20
2017-11-17T20:03:38.245Z,3.20
2017-11-17T20:05:40.925Z,3.20
2017-11-17T20:07:44.180Z,3.20
2017-11-17T20:09:46.864Z,3.30
2017-11-17T20:11:49.575Z,3.20
2017-11-17T20:13:52.353Z,3.40
2017-11-17T20:15:55.034Z,3.40
2017-11-17T20:17:57.771Z,3.50
2017-11-17T20:20:00.524Z,3.70
2017-11-17T20:22:03.225Z,3.80
2017-11-17T20:24:06.229Z,4.00
2017-11-17T20:26:09.021Z,4.00
2017-11-17T20:28:11.715Z,4.10
2017-11-17T20:30:14.548Z,4.20
2017-11-17T20:32:17.232Z,4.30
2017-11-17T20:34:20.128Z,4.30
2017-11-17T20:36:22.925Z,4.40
2017-11-17T20:38:25.598Z,4.50
2017-11-17T20:40:28.342Z,4.60
2017-11-17T20:42:31.045Z,4.60
2017-11-17T20:44:33.880Z,4.70
2017-11-17T20:46:37.235Z,4.70
2017-11-17T20:48:40.681Z,4.70
2017-11-17T20:50:44.068Z,4.70
2017-11-17T20:52:46.762Z,4.70
2017-11-17T20:54:49.536Z,4.70
2017-11-17T20:56:52.207Z,4.60
2017-11-17T20:58:55.060Z,4.60
2017-11-17T21:00:57.790Z,4.60
2017-11-17T21:03:00.739Z,4.50
2017-11-17T21:05:03.436Z,4.40
2017-11-17T21:07:06.146Z,4.40
2017-11-17T21:09:09.583Z,4.20
2017-11-17T21:11:12.270Z,4.20
2017-11-17T21:13:15.013Z,4.10
2017-11-17T21:15:17.877Z,4.10
2017-11-17T21:17:21.362Z,3.90
2017-11-17T21:19:24.021Z,3.90
2017-11-17T21:21:26.686Z,3.90
2017-11-17T21:23:29.954Z,3.80
2017-11-17T21:25:32.634Z,3.70
2017-11-17T21:27:35.525Z,3.70
2017-11-17T21:29:38.341Z,3.60
2017-11-17T21:31:41.167Z,3.60
2017-11-17T21:33:43.869Z,3.60
2017-11-17T21:35:46.516Z,3.60
2017-11-17T21:37:49.343Z,3.60
2017-11-17T21:39:52.224Z,3.50
2017-11-17T21:41:55.055Z,3.50
2017-11-17T21:43:57.720Z,3.50
2017-11-17T21:46:00.398Z,3.50
2017-11-17T21:48:03.205Z,3.50
2017-11-17T21:50:05.879Z,3.40
2017-11-17T21:52:08.624Z,3.40
2017-11-17T21:54:12.050Z,3.30
2017-11-17T21:56:15.002Z,3.20
2017-11-17T21:58:18.568Z,3.20
2017-11-17T22:00:21.236Z,3.20
2017-11-17T22:02:23.904Z,3.30
2017-11-17T22:04:26.617Z,3.30
2017-11-17T22:06:30.082Z,3.30
2017-11-17T22:08:32.802Z,3.20
2017-11-17T22:10:36.241Z,3.30
2017-11-17T22:12:38.996Z,3.30
2017-11-17T22:14:41.660Z,3.40
2017-11-17T22:16:44.450Z,3.40
2017-11-17T22:18:47.246Z,3.40
2017-11-17T22:20:49.914Z,3.40
2017-11-17T22:22:52.889Z,3.40
2017-11-17T22:24:55.550Z,3.50
2017-11-17T22:26:58.212Z,3.50
2017-11-17T22:29:01.665Z,3.50
2017-11-17T22:31:04.325Z,3.50
2017-11-17T22:33:06.996Z,3.60
2017-11-17T22:35:09.682Z,3.60
2017-11-17T22:37:12.432Z,3.60
2017-11-17T22:39:15.074Z,3.60
2017-11-17T22:41:17.772Z,3.60
2017-11-17T22:43:20.443Z,3.70
2017-11-17T22:45:23.896Z,3.70
2017-11-17T22:47:26.585Z,3.70
2017-11-17T22:49:29.275Z,3.60
2017-11-17T22:51:31.943Z,3.60
2017-11-17T22:53:34.624Z,3.60
2017-11-17T22:55:37.276Z,3.60
2017-11-17T22:57:40.147Z,3.60
2017-11-17T22:59:43.007Z,3.60
2017-11-17T23:01:45.853Z,3.60
2017-11-17T23:03:49.294Z,3.60
2017-11-17T23:05:52.052Z,3.60
2017-11-17T23:07:54.741Z,3.50
2017-11-17T23:09:57.401Z,3.50
2017-11-17T23:12:00.073Z,3.40
2017-11-17T23:14:02.867Z,3.50
2017-11-17T23:16:05.632Z,3.50
2017-11-17T23:18:08.302Z,3.40
2017-11-17T23:20:11.709Z,3.30
2017-11-17T23:22:14.385Z,3.30
2017-11-17T23:24:17.065Z,3.30
2017-11-17T23:26:19.717Z,3.20
2017-11-17T23:28:22.397Z,3.20
2017-11-17T23:30:25.092Z,3.10
2017-11-17T23:32:27.767Z,3.00
2017-11-17T23:34:30.444Z,3.00
2017-11-17T23:36:33.116Z,2.90
2017-11-17T23:38:35.982Z,2.80
2017-11-17T23:40:38.651Z,2.80
2017-11-17T23:42:42.170Z,2.70
2017-11-17T23:44:44.845Z,2.70
2017-11-17T23:46:47.491Z,2.70
2017-11-17T23:48:51.040Z,2.60
2017-11-17T23:50:53.748Z,2.60
2017-11-17T23:52:56.486Z,2.60
2017-11-17T23:54:59.170Z,2.60
2017-11-17T23:57:01.980Z,2.60
2017-11-17T23:59:04.751Z,2.50
